sensor_id;sensor_type;location;lat;lon;timestamp;pressure;altitude;pressure_sealevel;temperature;humidity
19748;BME280;10032;51.386;12.516;2023-03-03T00:00:43;100855.50;;;1.28;100.00
19748;BME280;10032;51.386;12.516;2023-03-03T00:03:10;100857.38;;;1.28;100.00
19748;BME280;10032;51.386;12.516;2023-03-03T00:05:37;100862.53;;;1.29;100.00
19748;BME280;10032;51.386;12.516;2023-03-03T00:08:03;100852.50;;;1.31;100.00
19748;BME280;10032;51.386;12.516;2023-03-03T00:10:29;100853.03;;;1.27;100.00
19748;BME280;10032;51.386;12.516;2023-03-03T00:12:55;100856.88;;;1.24;100.00
19748;BME280;10032;51.386;12.516;2023-03-03T00:15:23;100860.03;;;1.20;100.00
19748;BME280;10032;51.386;12.516;2023-03-03T00:17:49;100857.84;;;1.23;100.00
19748;BME280;10032;51.386;12.516;2023-03-03T00:20:26;100858.38;;;1.27;100.00
19748;BME280;10032;51.386;12.516;2023-03-03T00:22:53;100860.50;;;1.31;100.00
19748;BME280;10032;51.386;12.516;2023-03-03T00:25:32;100845.69;;;1.29;100.00
19748;BME280;10032;51.386;12.516;2023-03-03T00:28:22;100849.84;;;1.31;100.00
19748;BME280;10032;51.386;12.516;2023-03-03T00:30:50;100850.84;;;1.30;100.00
19748;BME280;10032;51.386;12.516;2023-03-03T00:33:33;100847.81;;;1.33;100.00
19748;BME280;10032;51.386;12.516;2023-03-03T00:38:48;100845.03;;;1.27;100.00
19748;BME280;10032;51.386;12.516;2023-03-03T00:41:25;100856.19;;;1.30;100.00
19748;BME280;10032;51.386;12.516;2023-03-03T00:43:51;100857.38;;;1.28;100.00
19748;BME280;10032;51.386;12.516;2023-03-03T00:46:18;100861.53;;;1.22;100.00
19748;BME280;10032;51.386;12.516;2023-03-03T00:48:45;100870.88;;;1.18;100.00
19748;BME280;10032;51.386;12.516;2023-03-03T00:51:25;100856.56;;;1.11;100.00
19748;BME280;10032;51.386;12.516;2023-03-03T00:53:52;100862.59;;;1.05;100.00
19748;BME280;10032;51.386;12.516;2023-03-03T00:56:18;100867.94;;;1.05;100.00
19748;BME280;10032;51.386;12.516;2023-03-03T00:58:44;100860.56;;;1.07;100.00
19748;BME280;10032;51.386;12.516;2023-03-03T01:01:12;100865.59;;;1.10;100.00
19748;BME280;10032;51.386;12.516;2023-03-03T01:03:38;100862.06;;;1.10;100.00
19748;BME280;10032;51.386;12.516;2023-03-03T01:06:04;100864.25;;;1.06;100.00
19748;BME280;10032;51.386;12.516;2023-03-03T01:08:29;100855.78;;;1.03;100.00
19748;BME280;10032;51.386;12.516;2023-03-03T01:10:56;100858.28;;;1.04;100.00
19748;BME280;10032;51.386;12.516;2023-03-03T01:13:26;100856.25;;;1.06;100.00
19748;BME280;10032;51.386;12.516;2023-03-03T01:15:52;100859.94;;;1.05;100.00
19748;BME280;10032;51.386;12.516;2023-03-03T01:18:18;100857.75;;;1.09;100.00
19748;BME280;10032;51.386;12.516;2023-03-03T01:20:44;100844.91;;;1.12;100.00
19748;BME280;10032;51.386;12.516;2023-03-03T01:23:09;100844.25;;;1.10;100.00
19748;BME280;10032;51.386;12.516;2023-03-03T01:25:35;100844.91;;;1.12;100.00
19748;BME280;10032;51.386;12.516;2023-03-03T01:28:01;100837.91;;;1.11;100.00
19748;BME280;10032;51.386;12.516;2023-03-03T01:30:27;100845.25;;;1.09;100.00
19748;BME280;10032;51.386;12.516;2023-03-03T01:32:53;100848.94;;;1.08;100.00
19748;BME280;10032;51.386;12.516;2023-03-03T01:35:18;100839.75;;;1.03;100.00
19748;BME280;10032;51.386;12.516;2023-03-03T01:37:44;100838.09;;;1.02;100.00
19748;BME280;10032;51.386;12.516;2023-03-03T01:40:22;100840.94;;;1.08;100.00
19748;BME280;10032;51.386;12.516;2023-03-03T01:42:47;100835.75;;;1.07;100.00
19748;BME280;10032;51.386;12.516;2023-03-03T01:45:25;100839.91;;;1.09;100.00
19748;BME280;10032;51.386;12.516;2023-03-03T01:50:31;100837.41;;;1.08;100.00
19748;BME280;10032;51.386;12.516;2023-03-03T01:53:01;100848.72;;;1.10;100.00
19748;BME280;10032;51.386;12.516;2023-03-03T01:55:34;100838.91;;;1.02;100.00
19748;BME280;10032;51.386;12.516;2023-03-03T01:58:21;100842.59;;;1.09;100.00
19748;BME280;10032;51.386;12.516;2023-03-03T02:00:50;100847.25;;;1.07;100.00
19748;BME280;10032;51.386;12.516;2023-03-03T02:03:18;100843.94;;;1.05;100.00
19748;BME280;10032;51.386;12.516;2023-03-03T02:05:45;100845.25;;;1.09;100.00
19748;BME280;10032;51.386;12.516;2023-03-03T02:08:14;100846.25;;;1.08;100.00
19748;BME280;10032;51.386;12.516;2023-03-03T02:10:43;100847.94;;;1.01;100.00
19748;BME280;10032;51.386;12.516;2023-03-03T02:13:10;100843.28;;;1.03;100.00
19748;BME280;10032;51.386;12.516;2023-03-03T02:15:36;100839.06;;;1.09;100.00
19748;BME280;10032;51.386;12.516;2023-03-03T02:18:16;100850.59;;;1.09;100.00
19748;BME280;10032;51.386;12.516;2023-03-03T02:21:11;100854.75;;;1.12;100.00
19748;BME280;10032;51.386;12.516;2023-03-03T02:24:04;100852.25;;;1.10;100.00
19748;BME280;10032;51.386;12.516;2023-03-03T02:26:35;100851.94;;;0.97;100.00
19748;BME280;10032;51.386;12.516;2023-03-03T02:29:02;100852.09;;;1.04;100.00
19748;BME280;10032;51.386;12.516;2023-03-03T02:31:29;100848.28;;;0.98;100.00
19748;BME280;10032;51.386;12.516;2023-03-03T02:33:56;100852.63;;;0.91;100.00
19748;BME280;10032;51.386;12.516;2023-03-03T02:41:34;100870.00;;;0.79;100.00
19748;BME280;10032;51.386;12.516;2023-03-03T02:44:11;100867.66;;;0.76;100.00
19748;BME280;10032;51.386;12.516;2023-03-03T02:46:39;100865.34;;;0.73;100.00
19748;BME280;10032;51.386;12.516;2023-03-03T02:49:06;100857.50;;;0.72;100.00
19748;BME280;10032;51.386;12.516;2023-03-03T02:51:33;100853.19;;;0.71;100.00
19748;BME280;10032;51.386;12.516;2023-03-03T02:53:59;100838.69;;;0.73;100.00
19748;BME280;10032;51.386;12.516;2023-03-03T02:56:25;100842.69;;;0.69;100.00
19748;BME280;10032;51.386;12.516;2023-03-03T02:58:51;100842.69;;;0.69;100.00
19748;BME280;10032;51.386;12.516;2023-03-03T03:01:17;100832.38;;;0.66;100.00
19748;BME280;10032;51.386;12.516;2023-03-03T03:03:42;100823.53;;;0.74;100.00
19748;BME280;10032;51.386;12.516;2023-03-03T03:06:08;100819.97;;;0.81;100.00
19748;BME280;10032;51.386;12.516;2023-03-03T03:08:33;100804.66;;;0.83;100.00
19748;BME280;10032;51.386;12.516;2023-03-03T03:10:59;100816.81;;;0.86;100.00
19748;BME280;10032;51.386;12.516;2023-03-03T03:13:25;100819.97;;;0.81;100.00
19748;BME280;10032;51.386;12.516;2023-03-03T03:15:51;100813.03;;;0.72;100.00
19748;BME280;10032;51.386;12.516;2023-03-03T03:18:16;100819.38;;;0.71;100.00
19748;BME280;10032;51.386;12.516;2023-03-03T03:20:42;100826.00;;;0.75;100.00
19748;BME280;10032;51.386;12.516;2023-03-03T03:23:09;100837.03;;;0.72;100.00
19748;BME280;10032;51.386;12.516;2023-03-03T03:25:34;100822.69;;;0.73;100.00
19748;BME280;10032;51.386;12.516;2023-03-03T03:28:07;100836.34;;;0.78;100.00
19748;BME280;10032;51.386;12.516;2023-03-03T03:30:32;100843.31;;;0.79;100.00
19748;BME280;10032;51.386;12.516;2023-03-03T03:32:59;100843.16;;;0.81;100.00
19748;BME280;10032;51.386;12.516;2023-03-03T03:35:24;100857.34;;;0.73;100.00
19748;BME280;10032;51.386;12.516;2023-03-03T03:37:50;100859.00;;;0.74;100.00
19748;BME280;10032;51.386;12.516;2023-03-03T03:40:15;100859.66;;;0.76;100.00
19748;BME280;10032;51.386;12.516;2023-03-03T03:42:41;100863.16;;;0.77;100.00
19748;BME280;10032;51.386;12.516;2023-03-03T03:45:06;100852.34;;;0.78;100.00
19748;BME280;10032;51.386;12.516;2023-03-03T03:47:32;100848.97;;;0.76;100.00
19748;BME280;10032;51.386;12.516;2023-03-03T03:49:57;100853.84;;;0.73;100.00
19748;BME280;10032;51.386;12.516;2023-03-03T03:52:23;100845.66;;;0.74;100.00
19748;BME280;10032;51.386;12.516;2023-03-03T03:54:48;100845.34;;;0.77;100.00
19748;BME280;10032;51.386;12.516;2023-03-03T03:57:13;100850.47;;;0.79;100.00
19748;BME280;10032;51.386;12.516;2023-03-03T03:59:39;100854.31;;;0.76;100.00
19748;BME280;10032;51.386;12.516;2023-03-03T04:02:04;100850.34;;;0.72;100.00
19748;BME280;10032;51.386;12.516;2023-03-03T04:04:30;100872.69;;;0.71;100.00
19748;BME280;10032;51.386;12.516;2023-03-03T04:06:55;100857.00;;;0.68;100.00
19748;BME280;10032;51.386;12.516;2023-03-03T04:09:21;100864.69;;;0.71;100.00
19748;BME280;10032;51.386;12.516;2023-03-03T04:11:46;100854.69;;;0.73;100.00
19748;BME280;10032;51.386;12.516;2023-03-03T04:14:12;100852.66;;;0.75;100.00
19748;BME280;10032;51.386;12.516;2023-03-03T04:16:37;100857.66;;;0.78;100.00
19748;BME280;10032;51.386;12.516;2023-03-03T04:19:03;100869.34;;;0.77;100.00
19748;BME280;10032;51.386;12.516;2023-03-03T04:21:28;100868.66;;;0.75;100.00
19748;BME280;10032;51.386;12.516;2023-03-03T04:23:54;100864.00;;;0.69;100.00
19748;BME280;10032;51.386;12.516;2023-03-03T04:26:19;100871.31;;;0.75;100.00
19748;BME280;10032;51.386;12.516;2023-03-03T04:28:45;100872.00;;;0.77;100.00
19748;BME280;10032;51.386;12.516;2023-03-03T04:31:10;100876.16;;;0.72;100.00
19748;BME280;10032;51.386;12.516;2023-03-03T04:33:35;100877.84;;;0.65;100.00
19748;BME280;10032;51.386;12.516;2023-03-03T04:36:01;100876.34;;;0.54;100.00
19748;BME280;10032;51.386;12.516;2023-03-03T04:38:27;100877.00;;;0.48;100.00
19748;BME280;10032;51.386;12.516;2023-03-03T04:40:52;100888.03;;;0.45;100.00
19748;BME280;10032;51.386;12.516;2023-03-03T04:43:18;100872.69;;;0.47;100.00
19748;BME280;10032;51.386;12.516;2023-03-03T04:45:43;100879.34;;;0.59;100.00
19748;BME280;10032;51.386;12.516;2023-03-03T04:48:09;100870.84;;;0.64;100.00
19748;BME280;10032;51.386;12.516;2023-03-03T04:50:34;100869.69;;;0.66;100.00
19748;BME280;10032;51.386;12.516;2023-03-03T04:53:00;100865.19;;;0.67;100.00
19748;BME280;10032;51.386;12.516;2023-03-03T04:55:25;100866.03;;;0.67;100.00
19748;BME280;10032;51.386;12.516;2023-03-03T04:57:51;100861.69;;;0.66;100.00
19748;BME280;10032;51.386;12.516;2023-03-03T05:00:16;100869.69;;;0.66;100.00
19748;BME280;10032;51.386;12.516;2023-03-03T05:02:42;100875.84;;;0.67;100.00
19748;BME280;10032;51.386;12.516;2023-03-03T05:05:08;100878.16;;;0.62;100.00
19748;BME280;10032;51.386;12.516;2023-03-03T05:07:38;100875.66;;;0.60;100.00
19748;BME280;10032;51.386;12.516;2023-03-03T05:10:04;100875.66;;;0.60;100.00
19748;BME280;10032;51.386;12.516;2023-03-03T05:12:30;100872.84;;;0.62;100.00
19748;BME280;10032;51.386;12.516;2023-03-03T05:14:55;100877.16;;;0.63;100.00
19748;BME280;10032;51.386;12.516;2023-03-03T05:17:20;100877.34;;;0.61;100.00
19748;BME280;10032;51.386;12.516;2023-03-03T05:19:46;100870.34;;;0.60;100.00
19748;BME280;10032;51.386;12.516;2023-03-03T05:22:11;100877.84;;;0.65;100.00
19748;BME280;10032;51.386;12.516;2023-03-03T05:24:37;100880.69;;;0.63;100.00
19748;BME280;10032;51.386;12.516;2023-03-03T05:27:02;100882.81;;;0.68;100.00
19748;BME280;10032;51.386;12.516;2023-03-03T05:29:28;100884.00;;;0.65;100.00
19748;BME280;10032;51.386;12.516;2023-03-03T05:31:59;100879.34;;;0.67;100.00
19748;BME280;10032;51.386;12.516;2023-03-03T05:34:24;100884.84;;;0.66;100.00
19748;BME280;10032;51.386;12.516;2023-03-03T05:36:50;100880.00;;;0.69;100.00
19748;BME280;10032;51.386;12.516;2023-03-03T05:39:15;100880.50;;;0.73;100.00
19748;BME280;10032;51.386;12.516;2023-03-03T05:41:41;100880.34;;;0.74;100.00
19748;BME280;10032;51.386;12.516;2023-03-03T05:44:07;100873.19;;;0.75;100.00
19748;BME280;10032;51.386;12.516;2023-03-03T05:46:32;100875.66;;;0.76;100.00
19748;BME280;10032;51.386;12.516;2023-03-03T05:48:58;100873.34;;;0.73;100.00
19748;BME280;10032;51.386;12.516;2023-03-03T05:51:23;100867.00;;;0.74;100.00
19748;BME280;10032;51.386;12.516;2023-03-03T05:53:49;100863.50;;;0.82;100.00
19748;BME280;10032;51.386;12.516;2023-03-03T05:56:14;100863.97;;;0.85;100.00
19748;BME280;10032;51.386;12.516;2023-03-03T05:58:39;100871.66;;;0.88;100.00
19748;BME280;10032;51.386;12.516;2023-03-03T06:01:05;100873.47;;;0.88;100.00
19748;BME280;10032;51.386;12.516;2023-03-03T06:03:30;100872.94;;;1.00;100.00
19748;BME280;10032;51.386;12.516;2023-03-03T06:05:56;100878.78;;;1.04;100.00
19748;BME280;10032;51.386;12.516;2023-03-03T06:08:22;100887.78;;;1.03;100.00
19748;BME280;10032;51.386;12.516;2023-03-03T06:10:47;100894.59;;;1.05;100.00
19748;BME280;10032;51.386;12.516;2023-03-03T06:13:13;100896.63;;;1.03;100.00
19748;BME280;10032;51.386;12.516;2023-03-03T06:15:38;100901.28;;;1.01;100.00
19748;BME280;10032;51.386;12.516;2023-03-03T06:18:03;100900.47;;;1.01;100.00
19748;BME280;10032;51.386;12.516;2023-03-03T06:20:29;100905.81;;;1.01;100.00
19748;BME280;10032;51.386;12.516;2023-03-03T06:22:56;100910.28;;;1.00;100.00
19748;BME280;10032;51.386;12.516;2023-03-03T06:25:21;100913.44;;;1.04;100.00
19748;BME280;10032;51.386;12.516;2023-03-03T06:27:47;100908.94;;;0.96;100.00
19748;BME280;10032;51.386;12.516;2023-03-03T06:30:13;100902.97;;;0.86;100.00
19748;BME280;10032;51.386;12.516;2023-03-03T06:32:38;100899.50;;;0.86;100.00
19748;BME280;10032;51.386;12.516;2023-03-03T06:35:04;100892.13;;;0.96;100.00
19748;BME280;10032;51.386;12.516;2023-03-03T06:37:30;100886.59;;;1.05;100.00
19748;BME280;10032;51.386;12.516;2023-03-03T06:39:55;100893.75;;;1.13;100.00
19748;BME280;10032;51.386;12.516;2023-03-03T06:42:21;100901.59;;;1.14;100.00
19748;BME280;10032;51.386;12.516;2023-03-03T06:44:49;100902.94;;;1.10;100.00
19748;BME280;10032;51.386;12.516;2023-03-03T06:47:14;100904.78;;;1.02;100.00
19748;BME280;10032;51.386;12.516;2023-03-03T06:49:39;100910.28;;;1.00;100.00
19748;BME280;10032;51.386;12.516;2023-03-03T06:52:22;100916.78;;;0.98;100.00
19748;BME280;10032;51.386;12.516;2023-03-03T06:54:48;100917.63;;;0.98;100.00
19748;BME280;10032;51.386;12.516;2023-03-03T06:57:24;100930.44;;;0.95;100.00
19748;BME280;10032;51.386;12.516;2023-03-03T06:59:53;100937.81;;;0.93;100.00
19748;BME280;10032;51.386;12.516;2023-03-03T07:02:20;100937.31;;;0.81;100.00
19748;BME280;10032;51.386;12.516;2023-03-03T07:04:46;100941.50;;;0.76;100.00
19748;BME280;10032;51.386;12.516;2023-03-03T07:09:39;100934.97;;;0.86;100.00
19748;BME280;10032;51.386;12.516;2023-03-03T07:12:26;100941.97;;;0.95;100.00
19748;BME280;10032;51.386;12.516;2023-03-03T07:15:11;100939.94;;;0.97;100.00
19748;BME280;10032;51.386;12.516;2023-03-03T07:17:43;100946.31;;;1.04;100.00
19748;BME280;10032;51.386;12.516;2023-03-03T07:20:23;100945.63;;;1.10;100.00
19748;BME280;10032;51.386;12.516;2023-03-03T07:22:50;100942.78;;;1.12;100.00
19748;BME280;10032;51.386;12.516;2023-03-03T07:25:34;100953.94;;;1.15;100.00
19748;BME280;10032;51.386;12.516;2023-03-03T07:30:46;100955.94;;;1.21;100.00
19748;BME280;10032;51.386;12.516;2023-03-03T07:33:25;100959.94;;;1.25;100.00
19748;BME280;10032;51.386;12.516;2023-03-03T07:35:52;100970.63;;;1.25;100.00
19748;BME280;10032;51.386;12.516;2023-03-03T07:40:58;100968.78;;;1.18;100.00
19748;BME280;10032;51.386;12.516;2023-03-03T07:43:36;100967.28;;;1.15;100.00
19748;BME280;10032;51.386;12.516;2023-03-03T07:46:25;100967.63;;;1.12;100.00
19748;BME280;10032;51.386;12.516;2023-03-03T07:48:52;100968.25;;;1.22;100.00
19748;BME280;10032;51.386;12.516;2023-03-03T07:56:42;100972.22;;;1.42;100.00
19748;BME280;10032;51.386;12.516;2023-03-03T07:59:22;100982.06;;;1.42;100.00
19748;BME280;10032;51.386;12.516;2023-03-03T08:01:53;100963.53;;;1.48;100.00
19748;BME280;10032;51.386;12.516;2023-03-03T08:06:58;100976.72;;;1.50;100.00
19748;BME280;10032;51.386;12.516;2023-03-03T08:09:29;100969.56;;;1.50;100.00
19748;BME280;10032;51.386;12.516;2023-03-03T08:14:33;100967.84;;;1.57;100.00
19748;BME280;10032;51.386;12.516;2023-03-03T08:16:59;100978.38;;;1.59;100.00
19748;BME280;10032;51.386;12.516;2023-03-03T08:19:26;100969.69;;;1.57;100.00
19748;BME280;10032;51.386;12.516;2023-03-03T08:22:00;100975.66;;;1.67;100.00
19748;BME280;10032;51.386;12.516;2023-03-03T08:24:27;100971.81;;;1.69;100.00
19748;BME280;10032;51.386;12.516;2023-03-03T08:26:52;100969.47;;;1.74;100.00
19748;BME280;10032;51.386;12.516;2023-03-03T08:29:17;100973.28;;;1.80;100.00
19748;BME280;10032;51.386;12.516;2023-03-03T08:31:43;100980.13;;;1.82;100.00
19748;BME280;10032;51.386;12.516;2023-03-03T08:34:08;100980.78;;;1.84;100.00
19748;BME280;10032;51.386;12.516;2023-03-03T08:36:34;100987.06;;;1.99;100.00
19748;BME280;10032;51.386;12.516;2023-03-03T08:38:59;100985.78;;;1.87;100.00
19748;BME280;10032;51.386;12.516;2023-03-03T08:41:25;100984.44;;;1.83;100.00
19748;BME280;10032;51.386;12.516;2023-03-03T08:43:50;100978.13;;;1.76;100.00
19748;BME280;10032;51.386;12.516;2023-03-03T08:46:16;100977.25;;;1.84;100.00
19748;BME280;10032;51.386;12.516;2023-03-03T08:48:41;100983.94;;;1.88;100.00
19748;BME280;10032;51.386;12.516;2023-03-03T08:51:06;100995.63;;;1.87;100.00
19748;BME280;10032;51.386;12.516;2023-03-03T08:53:32;100993.13;;;1.85;100.00
19748;BME280;10032;51.386;12.516;2023-03-03T08:56:01;100990.94;;;1.89;100.00
19748;BME280;10032;51.386;12.516;2023-03-03T08:58:26;101002.78;;;1.94;100.00
19748;BME280;10032;51.386;12.516;2023-03-03T09:00:52;100991.59;;;1.91;100.00
19748;BME280;10032;51.386;12.516;2023-03-03T09:03:18;100994.78;;;1.86;100.00
19748;BME280;10032;51.386;12.516;2023-03-03T09:05:43;101001.81;;;1.87;100.00
19748;BME280;10032;51.386;12.516;2023-03-03T09:08:10;101001.13;;;1.85;100.00
19748;BME280;10032;51.386;12.516;2023-03-03T09:10:35;101003.09;;;1.91;100.00
19748;BME280;10032;51.386;12.516;2023-03-03T09:13:07;100992.34;;;2.07;100.00
19748;BME280;10032;51.386;12.516;2023-03-03T09:15:37;100990.97;;;2.19;100.00
19748;BME280;10032;51.386;12.516;2023-03-03T09:18:30;100993.41;;;2.29;100.00
19748;BME280;10032;51.386;12.516;2023-03-03T09:20:56;100995.38;;;2.35;100.00
19748;BME280;10032;51.386;12.516;2023-03-03T09:23:35;100991.13;;;2.48;100.00
19748;BME280;10032;51.386;12.516;2023-03-03T09:26:14;100997.06;;;2.58;100.00
19748;BME280;10032;51.386;12.516;2023-03-03T09:28:45;101001.94;;;2.55;100.00
19748;BME280;10032;51.386;12.516;2023-03-03T09:31:24;101003.47;;;2.49;100.00
19748;BME280;10032;51.386;12.516;2023-03-03T09:33:50;101002.19;;;2.45;100.00
19748;BME280;10032;51.386;12.516;2023-03-03T09:36:38;101004.59;;;2.32;100.00
19748;BME280;10032;51.386;12.516;2023-03-03T09:39:16;101009.09;;;2.32;100.00
19748;BME280;10032;51.386;12.516;2023-03-03T09:50:40;100992.78;;;2.49;100.00
19748;BME280;10032;51.386;12.516;2023-03-03T09:56:15;100993.94;;;2.77;100.00
19748;BME280;10032;51.386;12.516;2023-03-03T10:01:42;100984.47;;;2.89;100.00
19748;BME280;10032;51.386;12.516;2023-03-03T10:13:14;100999.38;;;2.84;100.00
19748;BME280;10032;51.386;12.516;2023-03-03T10:16:08;101008.59;;;2.81;100.00
19748;BME280;10032;51.386;12.516;2023-03-03T10:18:49;101005.56;;;2.84;100.00
19748;BME280;10032;51.386;12.516;2023-03-03T10:21:23;101002.53;;;2.87;100.00
19748;BME280;10032;51.386;12.516;2023-03-03T10:29:59;101008.13;;;3.00;100.00
19748;BME280;10032;51.386;12.516;2023-03-03T10:32:50;101003.63;;;3.01;100.00
19748;BME280;10032;51.386;12.516;2023-03-03T10:40:51;100998.59;;;3.20;100.00
19748;BME280;10032;51.386;12.516;2023-03-03T10:57:48;101008.13;;;3.37;100.00
19748;BME280;10032;51.386;12.516;2023-03-03T11:05:59;101002.13;;;3.35;100.00
19748;BME280;10032;51.386;12.516;2023-03-03T11:32:57;100999.06;;;3.38;100.00
19748;BME280;10032;51.386;12.516;2023-03-03T11:45:49;100992.06;;;3.52;100.00
19748;BME280;10032;51.386;12.516;2023-03-03T11:51:06;100995.94;;;3.49;100.00
19748;BME280;10032;51.386;12.516;2023-03-03T11:56:44;100990.50;;;3.57;100.00
19748;BME280;10032;51.386;12.516;2023-03-03T12:02:15;100986.28;;;3.77;100.00
19748;BME280;10032;51.386;12.516;2023-03-03T12:04:59;100985.03;;;3.80;100.00
19748;BME280;10032;51.386;12.516;2023-03-03T12:07:43;100971.25;;;3.97;100.00
19748;BME280;10032;51.386;12.516;2023-03-03T12:10:35;100979.22;;;4.05;100.00
19748;BME280;10032;51.386;12.516;2023-03-03T12:13:29;100976.63;;;3.97;100.00
19748;BME280;10032;51.386;12.516;2023-03-03T12:24:09;100961.25;;;4.20;100.00
19748;BME280;10032;51.386;12.516;2023-03-03T12:29:24;100955.22;;;4.18;100.00
19748;BME280;10032;51.386;12.516;2023-03-03T12:37:21;100948.41;;;4.37;100.00
19748;BME280;10032;51.386;12.516;2023-03-03T13:00:53;100934.06;;;4.44;100.00
19748;BME280;10032;51.386;12.516;2023-03-03T13:06:42;100930.75;;;4.63;100.00
19748;BME280;10032;51.386;12.516;2023-03-03T13:11:59;100912.13;;;4.83;100.00
19748;BME280;10032;51.386;12.516;2023-03-03T13:14:47;100923.13;;;4.88;100.00
19748;BME280;10032;51.386;12.516;2023-03-03T13:17:24;100923.00;;;4.75;100.00
19748;BME280;10032;51.386;12.516;2023-03-03T13:20:35;100927.03;;;4.64;100.00
19748;BME280;10032;51.386;12.516;2023-03-03T13:23:05;100930.75;;;4.63;100.00
19748;BME280;10032;51.386;12.516;2023-03-03T13:25:47;100921.31;;;4.67;100.00
19748;BME280;10032;51.386;12.516;2023-03-03T13:28:27;100920.97;;;4.56;100.00
19748;BME280;10032;51.386;12.516;2023-03-03T13:31:11;100926.66;;;4.46;100.00
19748;BME280;10032;51.386;12.516;2023-03-03T13:33:42;100928.59;;;4.52;100.00
19748;BME280;10032;51.386;12.516;2023-03-03T13:36:13;100926.94;;;4.51;100.00
19748;BME280;10032;51.386;12.516;2023-03-03T13:38:46;100921.56;;;4.51;100.00
19748;BME280;10032;51.386;12.516;2023-03-03T13:41:30;100912.16;;;4.41;100.00
19748;BME280;10032;51.386;12.516;2023-03-03T13:46:49;100931.28;;;4.52;100.00
19748;BME280;10032;51.386;12.516;2023-03-03T13:51:53;100925.56;;;4.41;100.00
19748;BME280;10032;51.386;12.516;2023-03-03T14:00:10;100907.13;;;4.52;100.00
19748;BME280;10032;51.386;12.516;2023-03-03T14:05:49;100896.38;;;4.52;100.00
19748;BME280;10032;51.386;12.516;2023-03-03T14:16:09;100880.13;;;4.81;100.00
19748;BME280;10032;51.386;12.516;2023-03-03T14:18:51;100877.06;;;4.84;100.00
19748;BME280;10032;51.386;12.516;2023-03-03T14:21:26;100873.09;;;4.80;100.00
19748;BME280;10032;51.386;12.516;2023-03-03T14:24:06;100867.28;;;4.77;100.00
19748;BME280;10032;51.386;12.516;2023-03-03T14:26:54;100869.31;;;4.75;100.00
19748;BME280;10032;51.386;12.516;2023-03-03T14:29:21;100867.47;;;4.75;100.00
19748;BME280;10032;51.386;12.516;2023-03-03T14:31:57;100862.53;;;4.79;100.00
19748;BME280;10032;51.386;12.516;2023-03-03T14:34:33;100866.50;;;4.83;100.00
19748;BME280;10032;51.386;12.516;2023-03-03T14:37:19;100863.63;;;4.84;100.00
19748;BME280;10032;51.386;12.516;2023-03-03T14:39:50;100872.19;;;4.94;100.00
19748;BME280;10032;51.386;12.516;2023-03-03T14:42:36;100866.84;;;5.01;100.00
19748;BME280;10032;51.386;12.516;2023-03-03T14:45:40;100857.56;;;5.03;100.00
19748;BME280;10032;51.386;12.516;2023-03-03T14:50:39;100864.50;;;4.91;100.00
19748;BME280;10032;51.386;12.516;2023-03-03T14:55:46;100860.41;;;4.95;100.00
19748;BME280;10032;51.386;12.516;2023-03-03T14:58:39;100851.28;;;4.90;100.00
19748;BME280;10032;51.386;12.516;2023-03-03T15:01:24;100855.59;;;4.84;100.00
19748;BME280;10032;51.386;12.516;2023-03-03T15:04:00;100859.53;;;4.88;100.00
19748;BME280;10032;51.386;12.516;2023-03-03T15:06:44;100857.84;;;4.87;100.00
19748;BME280;10032;51.386;12.516;2023-03-03T15:11:54;100861.50;;;4.80;100.00
19748;BME280;10032;51.386;12.516;2023-03-03T15:14:29;100855.72;;;4.76;100.00
19748;BME280;10032;51.386;12.516;2023-03-03T15:17:19;100857.16;;;4.72;100.00
19748;BME280;10032;51.386;12.516;2023-03-03T15:25:17;100855.09;;;4.74;100.00
19748;BME280;10032;51.386;12.516;2023-03-03T15:27:59;100853.63;;;4.72;100.00
19748;BME280;10032;51.386;12.516;2023-03-03T15:30:43;100847.81;;;4.68;100.00
19748;BME280;10032;51.386;12.516;2023-03-03T15:35:49;100842.44;;;4.68;100.00
19748;BME280;10032;51.386;12.516;2023-03-03T15:41:10;100855.72;;;4.76;100.00
19748;BME280;10032;51.386;12.516;2023-03-03T15:43:52;100854.00;;;4.69;100.00
19748;BME280;10032;51.386;12.516;2023-03-03T15:46:31;100847.63;;;4.70;100.00
19748;BME280;10032;51.386;12.516;2023-03-03T15:49:23;100854.84;;;4.69;100.00
19748;BME280;10032;51.386;12.516;2023-03-03T15:52:09;100850.50;;;4.68;100.00
19748;BME280;10032;51.386;12.516;2023-03-03T15:54:52;100846.16;;;4.67;100.00
19748;BME280;10032;51.386;12.516;2023-03-03T16:11:01;100843.00;;;4.57;100.00
19748;BME280;10032;51.386;12.516;2023-03-03T16:13:53;100832.69;;;4.61;100.00
19748;BME280;10032;51.386;12.516;2023-03-03T16:19:22;100838.84;;;4.55;100.00
19748;BME280;10032;51.386;12.516;2023-03-03T16:42:16;100846.75;;;4.42;100.00
19748;BME280;10032;51.386;12.516;2023-03-03T16:50:43;100848.31;;;4.30;100.00
19748;BME280;10032;51.386;12.516;2023-03-03T17:04:14;100855.31;;;4.31;100.00
19748;BME280;10032;51.386;12.516;2023-03-03T17:44:10;100866.81;;;4.25;100.00
19748;BME280;10032;51.386;12.516;2023-03-03T17:46:53;100858.19;;;4.29;100.00
19748;BME280;10032;51.386;12.516;2023-03-03T17:52:38;100863.38;;;4.31;100.00
19748;BME280;10032;51.386;12.516;2023-03-03T17:55:42;100873.38;;;4.22;100.00
19748;BME280;10032;51.386;12.516;2023-03-03T18:20:38;100882.97;;;4.10;100.00
19748;BME280;10032;51.386;12.516;2023-03-03T18:22:49;100874.66;;;4.05;100.00
19748;BME280;10032;51.386;12.516;2023-03-03T18:25:20;100865.59;;;4.06;100.00
19748;BME280;10032;51.386;12.516;2023-03-03T18:30:52;100862.03;;;3.99;100.00